Portada
METAR-TAF:

METAR-TAF

Aeroports :

Apartadó, Colòmbia

latitud: 07-49N, longitud: 076-42W, altitud: 20 m

Observació

L'informe es va fer fa 2 hores i 40 minuts, a les 13:00 UTC
Vent 5 kt del Sud/Sud-Oest
Temperatura 25°C
Humitat 89%
Pressió 1013 hPa
Visibilitat 10 km o més
Núvols disperses a una alçada de 1800 ft

METAR: SKLC 131300Z 21005KT 9999 SCT018 25/23 A2991

Hora: 10:40 (15:40 UTC)


TAF: manca

Observacions i pronòstics meteorològics de més de 4000 aeroports (METAR i TAF).

Les estacions disponibles són els punts grocs i vermells al mapa.

Posi el ratolí al punt desitjat per veure el nom de l'estació.

Feu clic per veure les observacions i els pronòstics meteorològics.

Per canviar el mapa: feu clic els botons verds amb una creu de color negre per apropar; al botó verd amb un guió per allunyar la imatge; o en les fletxes verdes per a mapes adjacents.


METAR-TAF: